sensor_id;sensor_type;location;lat;lon;timestamp;temperature;humidity
35682;DHT22;21805;51.022;4.782;2023-02-24T19:34:19;6.60;99.90
35682;DHT22;21805;51.022;4.782;2023-02-24T19:42:16;6.60;99.90
35682;DHT22;21805;51.022;4.782;2023-02-24T19:44:43;6.70;99.90
35682;DHT22;21805;51.022;4.782;2023-02-24T19:47:09;6.80;99.90
35682;DHT22;21805;51.022;4.782;2023-02-24T19:49:35;6.70;99.90
35682;DHT22;21805;51.022;4.782;2023-02-24T19:52:01;6.70;99.90
35682;DHT22;21805;51.022;4.782;2023-02-24T19:54:28;6.70;99.90
35682;DHT22;21805;51.022;4.782;2023-02-24T19:56:55;6.70;99.90
35682;DHT22;21805;51.022;4.782;2023-02-24T19:59:22;6.70;99.90
35682;DHT22;21805;51.022;4.782;2023-02-24T20:01:48;6.70;99.90
35682;DHT22;21805;51.022;4.782;2023-02-24T20:04:16;6.70;99.90
35682;DHT22;21805;51.022;4.782;2023-02-24T20:06:42;6.70;99.90
35682;DHT22;21805;51.022;4.782;2023-02-24T20:09:09;6.70;99.90
35682;DHT22;21805;51.022;4.782;2023-02-24T20:11:36;6.70;99.90
35682;DHT22;21805;51.022;4.782;2023-02-24T20:14:02;6.60;99.90
35682;DHT22;21805;51.022;4.782;2023-02-24T20:16:27;6.60;99.90
35682;DHT22;21805;51.022;4.782;2023-02-24T20:18:57;6.50;99.90
35682;DHT22;21805;51.022;4.782;2023-02-24T20:21:28;6.60;99.90
35682;DHT22;21805;51.022;4.782;2023-02-24T20:23:57;6.60;99.90
35682;DHT22;21805;51.022;4.782;2023-02-24T20:26:23;6.60;99.90
35682;DHT22;21805;51.022;4.782;2023-02-24T20:28:49;6.50;99.90
35682;DHT22;21805;51.022;4.782;2023-02-24T20:31:16;6.40;99.90
35682;DHT22;21805;51.022;4.782;2023-02-24T20:33:45;6.40;99.90
35682;DHT22;21805;51.022;4.782;2023-02-24T20:36:12;6.30;99.90
35682;DHT22;21805;51.022;4.782;2023-02-24T20:38:38;6.30;99.90
35682;DHT22;21805;51.022;4.782;2023-02-24T20:41:05;6.20;99.90
35682;DHT22;21805;51.022;4.782;2023-02-24T20:43:32;6.20;99.90
35682;DHT22;21805;51.022;4.782;2023-02-24T20:45:59;6.30;99.90
35682;DHT22;21805;51.022;4.782;2023-02-24T20:48:35;6.30;99.90
35682;DHT22;21805;51.022;4.782;2023-02-24T20:51:04;6.30;99.90
35682;DHT22;21805;51.022;4.782;2023-02-24T20:53:30;6.20;99.90
35682;DHT22;21805;51.022;4.782;2023-02-24T20:56:03;6.20;99.90
35682;DHT22;21805;51.022;4.782;2023-02-24T20:58:30;6.10;99.90
35682;DHT22;21805;51.022;4.782;2023-02-24T21:00:55;6.20;99.90
35682;DHT22;21805;51.022;4.782;2023-02-24T21:03:21;6.10;99.90
35682;DHT22;21805;51.022;4.782;2023-02-24T21:05:49;6.10;99.90
35682;DHT22;21805;51.022;4.782;2023-02-24T21:08:18;6.10;99.90
35682;DHT22;21805;51.022;4.782;2023-02-24T21:10:45;6.00;99.90
35682;DHT22;21805;51.022;4.782;2023-02-24T21:13:10;6.00;99.90
35682;DHT22;21805;51.022;4.782;2023-02-24T21:15:37;6.00;99.90
35682;DHT22;21805;51.022;4.782;2023-02-24T21:18:03;6.00;99.90
35682;DHT22;21805;51.022;4.782;2023-02-24T21:20:36;5.90;99.90
35682;DHT22;21805;51.022;4.782;2023-02-24T21:23:01;5.90;99.90
35682;DHT22;21805;51.022;4.782;2023-02-24T21:25:29;5.90;99.90
35682;DHT22;21805;51.022;4.782;2023-02-24T21:27:54;5.80;99.90
35682;DHT22;21805;51.022;4.782;2023-02-24T21:30:20;5.80;99.90
35682;DHT22;21805;51.022;4.782;2023-02-24T21:32:47;5.80;99.90
35682;DHT22;21805;51.022;4.782;2023-02-24T21:35:13;5.80;99.90
35682;DHT22;21805;51.022;4.782;2023-02-24T21:37:38;5.70;99.90
35682;DHT22;21805;51.022;4.782;2023-02-24T21:40:06;5.70;99.90
35682;DHT22;21805;51.022;4.782;2023-02-24T21:45:09;5.80;99.90
35682;DHT22;21805;51.022;4.782;2023-02-24T21:47:38;5.80;99.90
35682;DHT22;21805;51.022;4.782;2023-02-24T21:50:04;5.80;99.90
35682;DHT22;21805;51.022;4.782;2023-02-24T21:52:32;5.70;99.90
35682;DHT22;21805;51.022;4.782;2023-02-24T21:54:59;5.80;99.90
35682;DHT22;21805;51.022;4.782;2023-02-24T21:57:24;5.80;99.90
35682;DHT22;21805;51.022;4.782;2023-02-24T21:59:50;5.80;99.90
35682;DHT22;21805;51.022;4.782;2023-02-24T22:04:46;5.80;99.90
35682;DHT22;21805;51.022;4.782;2023-02-24T22:07:12;5.70;99.90
35682;DHT22;21805;51.022;4.782;2023-02-24T22:09:37;5.70;99.90
35682;DHT22;21805;51.022;4.782;2023-02-24T22:12:05;5.80;99.90
35682;DHT22;21805;51.022;4.782;2023-02-24T22:14:39;5.80;99.90
35682;DHT22;21805;51.022;4.782;2023-02-24T22:17:06;5.80;99.90
35682;DHT22;21805;51.022;4.782;2023-02-24T22:19:32;5.80;99.90
35682;DHT22;21805;51.022;4.782;2023-02-24T22:21:58;5.80;99.90
35682;DHT22;21805;51.022;4.782;2023-02-24T22:24:24;5.80;99.90
35682;DHT22;21805;51.022;4.782;2023-02-24T22:26:50;5.70;99.90
35682;DHT22;21805;51.022;4.782;2023-02-24T22:29:18;5.60;99.90
35682;DHT22;21805;51.022;4.782;2023-02-24T22:31:44;5.60;99.90
35682;DHT22;21805;51.022;4.782;2023-02-24T22:34:11;5.60;99.90
35682;DHT22;21805;51.022;4.782;2023-02-24T22:36:38;5.60;99.90
35682;DHT22;21805;51.022;4.782;2023-02-24T22:39:05;5.60;99.90
35682;DHT22;21805;51.022;4.782;2023-02-24T22:41:35;5.50;99.90
35682;DHT22;21805;51.022;4.782;2023-02-24T22:44:02;5.60;99.90
35682;DHT22;21805;51.022;4.782;2023-02-24T22:46:29;5.60;99.90
35682;DHT22;21805;51.022;4.782;2023-02-24T22:48:55;5.70;99.90
35682;DHT22;21805;51.022;4.782;2023-02-24T22:51:21;5.60;99.90
35682;DHT22;21805;51.022;4.782;2023-02-24T22:53:47;5.50;99.90
35682;DHT22;21805;51.022;4.782;2023-02-24T22:56:15;5.60;99.90
35682;DHT22;21805;51.022;4.782;2023-02-24T22:58:41;5.60;99.90
35682;DHT22;21805;51.022;4.782;2023-02-24T23:01:18;5.70;99.90
35682;DHT22;21805;51.022;4.782;2023-02-24T23:03:43;5.80;99.90
35682;DHT22;21805;51.022;4.782;2023-02-24T23:06:11;5.90;99.90
35682;DHT22;21805;51.022;4.782;2023-02-24T23:08:41;5.90;99.90
35682;DHT22;21805;51.022;4.782;2023-02-24T23:11:11;6.00;99.90
35682;DHT22;21805;51.022;4.782;2023-02-24T23:13:39;6.10;99.90
35682;DHT22;21805;51.022;4.782;2023-02-24T23:16:06;6.10;99.90
35682;DHT22;21805;51.022;4.782;2023-02-24T23:18:32;6.10;99.90
35682;DHT22;21805;51.022;4.782;2023-02-24T23:21:02;6.10;99.90
35682;DHT22;21805;51.022;4.782;2023-02-24T23:23:30;6.20;99.90
35682;DHT22;21805;51.022;4.782;2023-02-24T23:25:55;6.20;99.90
35682;DHT22;21805;51.022;4.782;2023-02-24T23:28:23;6.10;99.90
35682;DHT22;21805;51.022;4.782;2023-02-24T23:30:49;6.10;99.90
35682;DHT22;21805;51.022;4.782;2023-02-24T23:33:16;6.10;99.90
35682;DHT22;21805;51.022;4.782;2023-02-24T23:35:42;6.10;99.90
35682;DHT22;21805;51.022;4.782;2023-02-24T23:38:08;6.20;99.90
35682;DHT22;21805;51.022;4.782;2023-02-24T23:40:36;6.20;99.90
35682;DHT22;21805;51.022;4.782;2023-02-24T23:43:02;6.20;99.90
35682;DHT22;21805;51.022;4.782;2023-02-24T23:45:27;6.10;99.90
35682;DHT22;21805;51.022;4.782;2023-02-24T23:47:53;6.10;99.90
35682;DHT22;21805;51.022;4.782;2023-02-24T23:50:19;6.10;99.90
35682;DHT22;21805;51.022;4.782;2023-02-24T23:52:45;6.10;99.90
35682;DHT22;21805;51.022;4.782;2023-02-24T23:55:11;6.10;99.90
35682;DHT22;21805;51.022;4.782;2023-02-24T23:57:38;6.00;99.90
